Hutchinson, Minnesota
Current Conditions -  °F | °C
As of 1:33 PM on Friday 24 Oct 2014 (Local Time) from KHCD Reporting Station
Clear Clear  
Wind Chill: 65°   Ceiling: Unl
Heat Index: 65°   Visibility: 10mi
Dew Point: 54°   Wind: 0mph
Humidity: 67%   Direction: NA
Pressure: 29.85"   Gusts: NA
Location:  44.89°N, 94.37°W
Report Text: KHCD 241833Z AUTO 00000KT 10SM CLR 18/12 A2985 RMK AO2 T01840121
Loading
Personal Weather Stations






























Interactive Weather Map
Tropical Storm Tracking
New forecast layout! Learn more

10-Day Weather Forecast

Advertisements
Track Severe Weather on mobile